Time;durP1;ratioP1;P1;durP2;ratioP2;P2;SDS_P1;SDS_P2;PMS_P1;PMS_P2;Temp;Humidity;BMP_temperature;BMP_pressure;BME280_temperature;BME280_humidity;BME280_pressure;Samples;Min_cycle;Max_cycle;Signal;HPM_P1;HPM_P2
2023/01/11 00:00:14;;;;;;;8.85;1.48;;;;;;;;;;4979173;28;20045;-73
2023/01/11 00:02:40;;;;;;;11.02;2.42;;;;;;;;;;4972706;28;20144;-74
2023/01/11 00:05:08;;;;;;;6.93;1.80;;;;;;;;;;4978974;28;20113;-74
2023/01/11 00:07:34;;;;;;;8.10;1.45;;;;;;;;;;4976709;28;20023;-74
2023/01/11 00:10:03;;;;;;;8.50;1.58;;;;;;;;;;4972645;28;20043;-73
2023/01/11 00:12:29;;;;;;;6.43;1.17;;;;;;;;;;4976381;28;20024;-73
2023/01/11 00:14:56;;;;;;;8.43;1.45;;;;;;;;;;4973948;28;20026;-74
2023/01/11 00:17:22;;;;;;;8.75;1.40;;;;;;;;;;4976466;28;20969;-73
2023/01/11 00:19:48;;;;;;;5.00;0.82;;;;;;;;;;4974708;28;20117;-74
2023/01/11 00:22:14;;;;;;;9.40;1.42;;;;;;;;;;4977998;28;20038;-73
2023/01/11 00:24:41;;;;;;;7.95;1.38;;;;;;;;;;4973917;28;20026;-73
2023/01/11 00:27:07;;;;;;;6.22;1.52;;;;;;;;;;4975899;28;20076;-73
2023/01/11 00:29:33;;;;;;;7.10;1.05;;;;;;;;;;4978413;28;20101;-73
2023/01/11 00:31:59;;;;;;;4.85;0.95;;;;;;;;;;4977233;28;20030;-74
2023/01/11 00:34:26;;;;;;;5.78;1.38;;;;;;;;;;4978784;28;20022;-74
2023/01/11 00:36:52;;;;;;;5.22;1.13;;;;;;;;;;4971935;28;20084;-73
2023/01/11 00:39:18;;;;;;;6.10;1.50;;;;;;;;;;4976957;28;20030;-74
2023/01/11 00:50:00;;;;;;;9.45;1.60;;;;;;;;;;4974540;28;20080;-74
2023/01/11 00:52:26;;;;;;;8.18;1.55;;;;;;;;;;4973154;28;20096;-74
2023/01/11 00:54:52;;;;;;;8.95;0.90;;;;;;;;;;4971556;28;20089;-72
2023/01/11 00:57:18;;;;;;;3.97;1.00;;;;;;;;;;4973178;28;20033;-73
2023/01/11 00:59:44;;;;;;;8.75;1.05;;;;;;;;;;4973419;28;20023;-73
2023/01/11 01:02:11;;;;;;;3.92;1.05;;;;;;;;;;4977935;28;20490;-73
2023/01/11 01:04:38;;;;;;;6.57;0.93;;;;;;;;;;4973455;28;21059;-72
2023/01/11 01:07:04;;;;;;;7.72;1.05;;;;;;;;;;4973871;28;20029;-73
2023/01/11 01:09:31;;;;;;;3.80;1.00;;;;;;;;;;4975299;28;20027;-73
2023/01/11 01:11:57;;;;;;;4.75;1.05;;;;;;;;;;4975515;28;20026;-72
2023/01/11 01:14:29;;;;;;;3.70;0.88;;;;;;;;;;4975333;28;20066;-72
2023/01/11 01:17:01;;;;;;;4.65;0.75;;;;;;;;;;4975900;28;20264;-72
2023/01/11 01:19:27;;;;;;;4.55;0.90;;;;;;;;;;4975695;28;20212;-72
2023/01/11 01:21:57;;;;;;;4.20;0.98;;;;;;;;;;4975764;28;20033;-72
2023/01/11 01:24:24;;;;;;;3.15;0.70;;;;;;;;;;4973719;28;20031;-72
2023/01/11 01:26:50;;;;;;;3.92;0.77;;;;;;;;;;4974575;28;20073;-73
2023/01/11 01:29:16;;;;;;;6.88;1.20;;;;;;;;;;4975962;28;20026;-72
2023/01/11 01:31:43;;;;;;;5.35;0.80;;;;;;;;;;4979254;28;20697;-73
2023/01/11 01:34:11;;;;;;;5.57;0.80;;;;;;;;;;4970302;28;20031;-72
2023/01/11 01:36:37;;;;;;;5.28;1.10;;;;;;;;;;4972232;28;20655;-72
2023/01/11 01:39:04;;;;;;;6.35;0.90;;;;;;;;;;4976125;28;20281;-72
2023/01/11 01:41:30;;;;;;;3.67;0.93;;;;;;;;;;4974521;28;20042;-72
2023/01/11 01:43:58;;;;;;;4.75;0.98;;;;;;;;;;4974508;28;20026;-72
2023/01/11 01:46:28;;;;;;;6.10;2.63;;;;;;;;;;4972627;28;20028;-72
2023/01/11 01:49:03;;;;;;;3.30;0.70;;;;;;;;;;4975492;28;20044;-72
2023/01/11 01:51:38;;;;;;;9.68;1.30;;;;;;;;;;4978259;28;20026;-73
2023/01/11 01:54:06;;;;;;;2.50;0.80;;;;;;;;;;4975152;28;20029;-72
2023/01/11 01:56:39;;;;;;;8.68;1.45;;;;;;;;;;4974560;28;20499;-72
2023/01/11 01:59:11;;;;;;;5.07;1.05;;;;;;;;;;4977448;28;20077;-72
2023/01/11 02:01:46;;;;;;;;;;;;;;;;;;4974629;28;20027;-72
2023/01/11 02:04:33;;;;;;;3.03;0.90;;;;;;;;;;4970971;28;19922;-72
2023/01/11 02:07:04;;;;;;;3.50;1.08;;;;;;;;;;4970006;28;20034;-72
2023/01/11 02:09:49;;;;;;;3.13;0.80;;;;;;;;;;4969665;28;20118;-73
2023/01/11 02:12:15;;;;;;;4.32;0.68;;;;;;;;;;4973543;28;20102;-72
2023/01/11 02:14:42;;;;;;;5.55;0.60;;;;;;;;;;4974569;28;20305;-73
2023/01/11 02:17:10;;;;;;;2.55;0.60;;;;;;;;;;4976398;28;20531;-72
2023/01/11 02:19:54;;;;;;;2.15;0.77;;;;;;;;;;4972643;28;20164;-72
2023/01/11 02:22:35;;;;;;;7.30;1.23;;;;;;;;;;4971459;28;20037;-72
2023/01/11 02:25:10;;;;;;;2.22;0.70;;;;;;;;;;4972875;28;20064;-72
2023/01/11 02:27:48;;;;;;;2.78;0.63;;;;;;;;;;4974339;28;20038;-73
2023/01/11 02:30:21;;;;;;;3.03;0.90;;;;;;;;;;4973281;28;20034;-73
2023/01/11 02:32:54;;;;;;;3.17;0.75;;;;;;;;;;4976609;28;20019;-72
2023/01/11 02:35:33;;;;;;;5.65;0.90;;;;;;;;;;4974636;28;20105;-73
2023/01/11 02:38:05;;;;;;;8.35;1.40;;;;;;;;;;4980127;28;20666;-72
2023/01/11 02:40:45;;;;;;;7.05;1.30;;;;;;;;;;4977221;28;20038;-72
2023/01/11 02:46:07;;;;;;;4.38;1.05;;;;;;;;;;4974849;28;20430;-72
2023/01/11 02:48:36;;;;;;;4.35;0.98;;;;;;;;;;4978885;28;20145;-72
2023/01/11 02:51:02;;;;;;;7.38;1.95;;;;;;;;;;4972790;28;20033;-71
2023/01/11 02:53:52;;;;;;;4.15;0.93;;;;;;;;;;4975103;28;20022;-72
2023/01/11 02:56:22;;;;;;;3.75;0.70;;;;;;;;;;4971082;28;20068;-73
2023/01/11 02:58:50;;;;;;;4.35;0.90;;;;;;;;;;4970069;28;20015;-72
2023/01/11 03:01:18;;;;;;;3.70;0.85;;;;;;;;;;4975451;28;20027;-72
2023/01/11 03:03:44;;;;;;;4.28;0.75;;;;;;;;;;4977647;28;20077;-72
2023/01/11 03:06:10;;;;;;;1.33;0.63;;;;;;;;;;4975407;28;20374;-73
2023/01/11 03:08:37;;;;;;;5.25;0.88;;;;;;;;;;4976713;28;20576;-73
2023/01/11 03:11:11;;;;;;;9.05;1.02;;;;;;;;;;4977083;28;20084;-72
2023/01/11 03:13:40;;;;;;;5.50;0.90;;;;;;;;;;4977382;28;20034;-72
2023/01/11 03:16:21;;;;;;;4.35;0.80;;;;;;;;;;4973304;28;20026;-72
2023/01/11 03:18:52;;;;;;;3.83;0.82;;;;;;;;;;4975408;28;20037;-72
2023/01/11 03:21:37;;;;;;;9.15;1.15;;;;;;;;;;4976283;28;20058;-72
2023/01/11 03:24:12;;;;;;;5.97;1.08;;;;;;;;;;4974748;28;20548;-72
2023/01/11 03:26:57;;;;;;;5.05;1.00;;;;;;;;;;4974973;28;20022;-72
2023/01/11 03:29:41;;;;;;;3.72;1.00;;;;;;;;;;4974480;28;20030;-72
2023/01/11 03:32:13;;;;;;;5.45;0.73;;;;;;;;;;4975636;28;20045;-72
2023/01/11 03:34:39;;;;;;;4.28;0.93;;;;;;;;;;4970343;28;20034;-72
2023/01/11 03:37:14;;;;;;;4.55;0.77;;;;;;;;;;4979303;28;20026;-72
2023/01/11 03:39:45;;;;;;;1.88;0.65;;;;;;;;;;4973297;28;20153;-72
2023/01/11 03:42:13;;;;;;;3.13;0.87;;;;;;;;;;4980784;28;20061;-72
2023/01/11 03:44:42;;;;;;;3.20;0.70;;;;;;;;;;4985938;28;20022;-71
2023/01/11 03:47:10;;;;;;;3.13;1.15;;;;;;;;;;4982784;28;20076;-72
2023/01/11 03:49:38;;;;;;;2.42;0.70;;;;;;;;;;4980717;28;20026;-72
2023/01/11 03:52:10;;;;;;;3.33;0.80;;;;;;;;;;4982725;28;20019;-72
2023/01/11 03:54:37;;;;;;;2.58;0.68;;;;;;;;;;4983641;28;20077;-71
2023/01/11 03:57:07;;;;;;;6.20;1.05;;;;;;;;;;4980638;28;20022;-72
2023/01/11 03:59:33;;;;;;;4.25;0.82;;;;;;;;;;4985558;28;20038;-72
2023/01/11 04:02:00;;;;;;;2.88;0.60;;;;;;;;;;4982228;28;20058;-71
2023/01/11 04:04:27;;;;;;;6.78;1.00;;;;;;;;;;4982883;28;20158;-71
2023/01/11 04:06:53;;;;;;;5.07;0.70;;;;;;;;;;4980191;28;20029;-71
2023/01/11 04:09:19;;;;;;;5.03;0.85;;;;;;;;;;4980523;28;20034;-71
2023/01/11 04:11:45;;;;;;;4.57;1.52;;;;;;;;;;4981160;28;20015;-71
2023/01/11 04:14:11;;;;;;;5.22;0.90;;;;;;;;;;4975985;28;20029;-72
2023/01/11 04:16:38;;;;;;;5.20;0.80;;;;;;;;;;4979331;28;20078;-71
2023/01/11 04:19:04;;;;;;;2.78;0.52;;;;;;;;;;4973542;28;20113;-71
2023/01/11 04:21:30;;;;;;;3.47;0.70;;;;;;;;;;4977502;28;20038;-72
2023/01/11 04:23:56;;;;;;;4.05;0.77;;;;;;;;;;4979686;28;20823;-72
2023/01/11 04:26:22;;;;;;;3.75;0.65;;;;;;;;;;4974541;28;20221;-73
2023/01/11 04:28:48;;;;;;;4.65;0.90;;;;;;;;;;4978980;28;20030;-73
2023/01/11 04:31:14;;;;;;;4.32;0.75;;;;;;;;;;4979899;28;20026;-72
2023/01/11 04:33:41;;;;;;;3.95;0.70;;;;;;;;;;4978814;28;20030;-72
2023/01/11 04:36:08;;;;;;;3.80;0.85;;;;;;;;;;4978528;28;20076;-72
2023/01/11 04:38:35;;;;;;;4.10;1.00;;;;;;;;;;4979333;28;20061;-72
2023/01/11 04:43:46;;;;;;;2.70;1.20;;;;;;;;;;4980035;28;20149;-72
2023/01/11 04:46:12;;;;;;;2.22;0.50;;;;;;;;;;4977295;28;20101;-71
2023/01/11 04:48:39;;;;;;;2.42;0.50;;;;;;;;;;4974772;28;20034;-71
2023/01/11 04:51:08;;;;;;;2.47;0.88;;;;;;;;;;4976559;28;20034;-71
2023/01/11 04:53:35;;;;;;;5.65;1.00;;;;;;;;;;4979301;28;20031;-72
2023/01/11 04:56:02;;;;;;;3.20;0.85;;;;;;;;;;4982926;28;20038;-72
2023/01/11 04:58:29;;;;;;;3.30;0.70;;;;;;;;;;4980330;28;20145;-72
2023/01/11 05:00:55;;;;;;;4.07;0.80;;;;;;;;;;4976769;28;20030;-71
2023/01/11 05:03:22;;;;;;;3.42;0.75;;;;;;;;;;4978521;28;20034;-71
2023/01/11 05:06:14;;;;;;;3.78;0.50;;;;;;;;;;4975681;28;20037;-72
2023/01/11 05:08:44;;;;;;;2.72;0.60;;;;;;;;;;4976311;28;20077;-71
2023/01/11 05:11:10;;;;;;;2.97;0.68;;;;;;;;;;4977868;28;20032;-71
2023/01/11 05:13:42;;;;;;;5.25;0.55;;;;;;;;;;4977768;28;20073;-71
2023/01/11 05:16:13;;;;;;;3.63;0.52;;;;;;;;;;4977490;28;20925;-71
2023/01/11 05:18:44;;;;;;;3.20;0.50;;;;;;;;;;4976342;28;20026;-72
2023/01/11 05:21:11;;;;;;;2.42;0.65;;;;;;;;;;4979542;28;20121;-71
2023/01/11 05:23:38;;;;;;;4.35;1.05;;;;;;;;;;4976861;28;20061;-72
2023/01/11 05:26:05;;;;;;;4.82;0.80;;;;;;;;;;4975281;28;20499;-71
2023/01/11 05:28:32;;;;;;;3.47;0.80;;;;;;;;;;4978046;28;20033;-71
2023/01/11 05:30:58;;;;;;;5.22;1.23;;;;;;;;;;4979905;28;20030;-72
2023/01/11 05:33:24;;;;;;;2.55;0.82;;;;;;;;;;4979818;28;20026;-72
2023/01/11 05:35:51;;;;;;;3.08;0.60;;;;;;;;;;4975067;28;20058;-72
2023/01/11 05:38:17;;;;;;;4.45;0.75;;;;;;;;;;4981230;28;20015;-71
2023/01/11 05:40:44;;;;;;;1.88;0.80;;;;;;;;;;4976423;28;20042;-72
2023/01/11 05:43:10;;;;;;;2.75;0.70;;;;;;;;;;4978608;28;20037;-71
2023/01/11 05:45:37;;;;;;;2.58;1.17;;;;;;;;;;4975346;28;20030;-72
2023/01/11 05:48:03;;;;;;;2.20;0.80;;;;;;;;;;4977207;28;20030;-72
2023/01/11 05:50:29;;;;;;;2.05;0.75;;;;;;;;;;4973805;28;20642;-71
2023/01/11 05:52:55;;;;;;;0.95;0.45;;;;;;;;;;4977883;28;20164;-74
2023/01/11 05:55:21;;;;;;;2.65;0.50;;;;;;;;;;4978155;28;20053;-72
2023/01/11 05:57:49;;;;;;;2.15;0.60;;;;;;;;;;4976238;28;20026;-72
2023/01/11 06:00:15;;;;;;;1.88;0.60;;;;;;;;;;4976508;28;20609;-71
2023/01/11 06:02:42;;;;;;;3.38;0.85;;;;;;;;;;4978150;28;20042;-72
2023/01/11 06:05:08;;;;;;;6.70;0.68;;;;;;;;;;4978988;28;20509;-72
2023/01/11 06:07:34;;;;;;;2.53;0.60;;;;;;;;;;4979849;28;20584;-71
2023/01/11 06:10:00;;;;;;;4.20;0.77;;;;;;;;;;4979173;28;20038;-73
2023/01/11 06:12:27;;;;;;;1.42;0.40;;;;;;;;;;4976728;28;20030;-72
2023/01/11 06:14:53;;;;;;;1.73;0.45;;;;;;;;;;4980068;28;20022;-73
2023/01/11 06:17:19;;;;;;;1.23;0.50;;;;;;;;;;4978058;28;20026;-72
2023/01/11 06:19:45;;;;;;;3.88;0.80;;;;;;;;;;4978845;28;20205;-73
2023/01/11 06:22:11;;;;;;;3.03;0.60;;;;;;;;;;4980267;28;20030;-72
2023/01/11 06:24:37;;;;;;;5.97;0.88;;;;;;;;;;4978568;28;20084;-72
2023/01/11 06:27:03;;;;;;;5.85;0.75;;;;;;;;;;4980359;28;20036;-71
2023/01/11 06:29:30;;;;;;;4.50;0.95;;;;;;;;;;4976669;28;20022;-72
2023/01/11 06:31:57;;;;;;;4.47;0.60;;;;;;;;;;4981228;28;20056;-72
2023/01/11 06:34:23;;;;;;;3.75;0.40;;;;;;;;;;4978008;28;20550;-71
2023/01/11 06:36:49;;;;;;;3.35;0.82;;;;;;;;;;4971637;28;20030;-71
2023/01/11 06:39:15;;;;;;;4.22;0.50;;;;;;;;;;4978740;28;20022;-73
2023/01/11 06:41:41;;;;;;;5.00;1.00;;;;;;;;;;4974958;28;20080;-73
2023/01/11 06:44:07;;;;;;;3.53;0.88;;;;;;;;;;4979046;28;20026;-71
2023/01/11 06:46:34;;;;;;;84.00;7.68;;;;;;;;;;4978295;28;20619;-72
2023/01/11 06:49:02;;;;;;;99.32;7.32;;;;;;;;;;4976835;28;20029;-72
2023/01/11 06:51:28;;;;;;;67.20;7.13;;;;;;;;;;4981167;28;20076;-71
2023/01/11 06:53:54;;;;;;;34.35;3.15;;;;;;;;;;4978179;28;20037;-70
2023/01/11 06:56:20;;;;;;;5.07;0.88;;;;;;;;;;4980552;28;20027;-71
2023/01/11 06:58:47;;;;;;;1.75;0.70;;;;;;;;;;4976497;28;20019;-73
2023/01/11 07:01:13;;;;;;;3.90;0.57;;;;;;;;;;4975314;28;20035;-72
2023/01/11 07:03:40;;;;;;;3.78;0.70;;;;;;;;;;4978269;28;20061;-73
2023/01/11 07:06:06;;;;;;;8.73;0.90;;;;;;;;;;4974769;28;20030;-72
2023/01/11 07:08:33;;;;;;;16.13;1.73;;;;;;;;;;4973523;28;20014;-75
2023/01/11 07:10:59;;;;;;;250.32;19.30;;;;;;;;;;4982658;28;20026;-75
2023/01/11 07:13:25;;;;;;;363.52;35.00;;;;;;;;;;4976651;28;20034;-77
2023/01/11 07:15:52;;;;;;;305.17;25.25;;;;;;;;;;4971806;28;20769;-76
2023/01/11 07:18:19;;;;;;;50.80;5.32;;;;;;;;;;4976792;28;20026;-76
2023/01/11 07:20:45;;;;;;;13.10;1.35;;;;;;;;;;4977107;28;20117;-77
2023/01/11 07:23:11;;;;;;;7.68;1.20;;;;;;;;;;4971215;28;20094;-79
2023/01/11 07:25:38;;;;;;;11.27;1.50;;;;;;;;;;4979233;28;20026;-76
2023/01/11 07:28:05;;;;;;;16.02;2.85;;;;;;;;;;4980553;28;20011;-72
2023/01/11 07:30:33;;;;;;;5.20;0.73;;;;;;;;;;4976153;28;20602;-74
2023/01/11 07:33:00;;;;;;;3.55;0.90;;;;;;;;;;4977519;28;20499;-76
2023/01/11 07:35:26;;;;;;;6.70;0.80;;;;;;;;;;4979341;28;20487;-75
2023/01/11 07:37:53;;;;;;;4.43;0.85;;;;;;;;;;4977364;28;20098;-75
2023/01/11 07:40:19;;;;;;;3.15;0.68;;;;;;;;;;4980263;28;20034;-74
2023/01/11 07:43:10;;;;;;;3.60;0.98;;;;;;;;;;4979530;28;20821;-75
2023/01/11 07:45:37;;;;;;;4.03;0.77;;;;;;;;;;4979526;28;20027;-75
2023/01/11 07:48:04;;;;;;;2.35;0.80;;;;;;;;;;4979490;28;20186;-74
2023/01/11 07:50:30;;;;;;;5.75;0.70;;;;;;;;;;4979975;28;20034;-75
2023/01/11 07:52:57;;;;;;;1.80;0.50;;;;;;;;;;4975888;28;20046;-74
2023/01/11 07:55:23;;;;;;;2.08;0.70;;;;;;;;;;4980269;28;20509;-75
2023/01/11 07:57:49;;;;;;;2.55;0.45;;;;;;;;;;4979596;28;20034;-75
2023/01/11 08:00:15;;;;;;;2.63;0.50;;;;;;;;;;4978957;28;20035;-74
2023/01/11 08:02:42;;;;;;;3.03;0.77;;;;;;;;;;4980841;28;20054;-72
2023/01/11 08:05:08;;;;;;;4.28;0.45;;;;;;;;;;4980536;28;20085;-75
2023/01/11 08:07:34;;;;;;;7.55;0.80;;;;;;;;;;4977573;28;20105;-77
2023/01/11 08:10:02;;;;;;;1.90;0.68;;;;;;;;;;4978711;28;20069;-76
2023/01/11 08:15:13;;;;;;;2.25;0.60;;;;;;;;;;4977405;28;20069;-76
2023/01/11 08:17:39;;;;;;;4.13;0.60;;;;;;;;;;4975334;28;20077;-75
2023/01/11 08:20:05;;;;;;;2.08;0.50;;;;;;;;;;4976480;28;20046;-78
2023/01/11 08:22:32;;;;;;;3.45;0.80;;;;;;;;;;4984297;28;20037;-78
2023/01/11 08:24:58;;;;;;;3.92;0.80;;;;;;;;;;4981386;28;20692;-73
2023/01/11 08:27:24;;;;;;;3.83;1.00;;;;;;;;;;4982540;28;20113;-78
2023/01/11 08:29:50;;;;;;;4.10;0.60;;;;;;;;;;4979847;28;20109;-77
2023/01/11 08:32:16;;;;;;;3.28;0.65;;;;;;;;;;4982053;28;20050;-73
2023/01/11 08:34:42;;;;;;;7.30;0.90;;;;;;;;;;4978929;28;20064;-73
2023/01/11 08:37:09;;;;;;;6.07;0.80;;;;;;;;;;4974373;28;20091;-72
2023/01/11 08:39:35;;;;;;;6.53;0.80;;;;;;;;;;4979751;28;20784;-76
2023/01/11 08:42:02;;;;;;;9.55;0.90;;;;;;;;;;4984732;28;20065;-77
2023/01/11 08:44:28;;;;;;;1.65;0.50;;;;;;;;;;4981175;28;20033;-76
2023/01/11 08:46:54;;;;;;;4.00;0.93;;;;;;;;;;4973246;28;20101;-78
2023/01/11 08:49:20;;;;;;;5.00;0.80;;;;;;;;;;4978377;28;20026;-77
2023/01/11 08:51:46;;;;;;;2.08;0.73;;;;;;;;;;4981392;28;20026;-71
2023/01/11 08:54:13;;;;;;;3.45;0.77;;;;;;;;;;4980623;28;20102;-75
2023/01/11 08:56:39;;;;;;;3.40;0.60;;;;;;;;;;4980454;28;20101;-76
2023/01/11 08:59:06;;;;;;;2.72;0.60;;;;;;;;;;4983667;28;20018;-75
2023/01/11 09:01:35;;;;;;;6.80;1.27;;;;;;;;;;4974701;28;20035;-74
2023/01/11 09:04:01;;;;;;;2.35;0.75;;;;;;;;;;4979547;28;20096;-75
2023/01/11 09:06:27;;;;;;;6.25;1.20;;;;;;;;;;4980106;28;20030;-73
2023/01/11 09:08:53;;;;;;;2.85;0.75;;;;;;;;;;4980898;28;20022;-75
2023/01/11 09:14:04;;;;;;;0.95;0.35;;;;;;;;;;4976633;28;20034;-76
2023/01/11 09:16:31;;;;;;;2.28;0.60;;;;;;;;;;4979582;28;20133;-75
2023/01/11 09:18:57;;;;;;;3.67;0.70;;;;;;;;;;4974626;28;20026;-77
2023/01/11 09:21:23;;;;;;;2.53;0.88;;;;;;;;;;4981966;28;20664;-75
2023/01/11 09:23:50;;;;;;;4.07;0.60;;;;;;;;;;4977493;28;20033;-74
2023/01/11 09:26:16;;;;;;;3.33;0.50;;;;;;;;;;4978361;28;20912;-74
2023/01/11 09:28:42;;;;;;;3.25;0.60;;;;;;;;;;4976797;28;20459;-74
2023/01/11 09:31:08;;;;;;;1.20;0.50;;;;;;;;;;4982122;28;20026;-74
2023/01/11 09:33:35;;;;;;;2.60;0.40;;;;;;;;;;4978626;28;20058;-73
2023/01/11 09:36:01;;;;;;;4.88;0.60;;;;;;;;;;4976105;28;20023;-74
2023/01/11 09:38:29;;;;;;;3.00;0.88;;;;;;;;;;4981365;28;20050;-75
2023/01/11 09:40:56;;;;;;;3.28;0.95;;;;;;;;;;4970314;28;20085;-74
2023/01/11 09:43:26;;;;;;;5.40;0.75;;;;;;;;;;4979960;28;20553;-74
2023/01/11 09:45:54;;;;;;;3.72;0.98;;;;;;;;;;4975783;28;20026;-72
2023/01/11 09:48:34;;;;;;;2.45;0.50;;;;;;;;;;4978311;28;20023;-74
2023/01/11 09:51:01;;;;;;;3.72;0.50;;;;;;;;;;4982021;28;20038;-76
2023/01/11 09:53:37;;;;;;;7.72;1.45;;;;;;;;;;4980608;28;20482;-73
2023/01/11 09:56:10;;;;;;;3.60;0.73;;;;;;;;;;4977979;28;20109;-73
2023/01/11 09:58:55;;;;;;;9.82;0.63;;;;;;;;;;4976306;28;20046;-74
2023/01/11 10:01:39;;;;;;;2.97;0.60;;;;;;;;;;4979947;28;20118;-75
2023/01/11 10:04:14;;;;;;;2.75;0.47;;;;;;;;;;4981307;28;20568;-72
2023/01/11 10:06:59;;;;;;;2.47;0.43;;;;;;;;;;4978012;28;20076;-74
2023/01/11 10:09:32;;;;;;;3.97;0.70;;;;;;;;;;4982315;28;20034;-74
2023/01/11 10:12:30;;;;;;;3.78;0.90;;;;;;;;;;4976653;28;20022;-76
2023/01/11 10:14:59;;;;;;;8.65;0.57;;;;;;;;;;4973209;28;20088;-75
2023/01/11 10:17:39;;;;;;;1.77;0.70;;;;;;;;;;4979728;28;20027;-74
2023/01/11 10:20:15;;;;;;;2.22;0.60;;;;;;;;;;4979832;28;20565;-76
2023/01/11 10:22:43;;;;;;;4.40;1.15;;;;;;;;;;4982211;28;20185;-76
2023/01/11 10:25:20;;;;;;;5.80;0.50;;;;;;;;;;4980708;28;20027;-75
2023/01/11 10:27:56;;;;;;;1.88;0.50;;;;;;;;;;4978526;28;20026;-74
2023/01/11 10:30:48;;;;;;;3.70;0.60;;;;;;;;;;4978543;28;20376;-74
2023/01/11 10:33:51;;;;;;;2.80;0.60;;;;;;;;;;4978949;28;20051;-75
2023/01/11 10:37:21;;;;;;;5.38;0.70;;;;;;;;;;4978930;28;20177;-74
2023/01/11 10:42:20;;;;;;;4.32;0.85;;;;;;;;;;4981320;28;20184;-76
2023/01/11 10:44:56;;;;;;;8.43;1.75;;;;;;;;;;4981243;28;20027;-75
2023/01/11 10:47:26;;;;;;;13.60;1.25;;;;;;;;;;4981728;28;20027;-75
2023/01/11 10:49:58;;;;;;;4.18;1.13;;;;;;;;;;4979055;28;20589;-75
2023/01/11 10:52:25;;;;;;;10.35;1.23;;;;;;;;;;4975873;28;20081;-75
2023/01/11 10:54:54;;;;;;;6.15;1.02;;;;;;;;;;4984128;28;20022;-75
2023/01/11 10:57:38;;;;;;;6.10;0.85;;;;;;;;;;4982343;28;20025;-75
2023/01/11 11:00:04;;;;;;;15.73;2.22;;;;;;;;;;4981558;28;20026;-76
2023/01/11 11:02:53;;;;;;;6.20;1.23;;;;;;;;;;4976908;28;20537;-75
2023/01/11 11:05:19;;;;;;;6.07;0.85;;;;;;;;;;4979783;28;20023;-74
2023/01/11 11:08:04;;;;;;;5.60;1.23;;;;;;;;;;4974998;28;20025;-77
2023/01/11 11:10:33;;;;;;;5.05;1.20;;;;;;;;;;4979645;28;20035;-76
2023/01/11 11:13:15;;;;;;;6.50;0.90;;;;;;;;;;4976487;28;20027;-75
2023/01/11 11:15:53;;;;;;;7.72;1.00;;;;;;;;;;4982834;28;20053;-75
2023/01/11 11:18:19;;;;;;;7.47;1.15;;;;;;;;;;4978618;28;20070;-73
2023/01/11 11:20:45;;;;;;;8.57;1.30;;;;;;;;;;4982840;28;20117;-75
2023/01/11 11:23:16;;;;;;;5.45;1.25;;;;;;;;;;4978877;28;20018;-76
2023/01/11 11:25:46;;;;;;;9.07;0.93;;;;;;;;;;4981260;28;20026;-75
2023/01/11 11:28:21;;;;;;;6.80;1.08;;;;;;;;;;4979361;28;20018;-75
2023/01/11 11:30:49;;;;;;;4.50;1.00;;;;;;;;;;4979767;28;20109;-76
2023/01/11 11:33:36;;;;;;;6.10;1.23;;;;;;;;;;4980803;28;20047;-75
2023/01/11 11:36:04;;;;;;;8.82;1.27;;;;;;;;;;4972941;28;20018;-76
2023/01/11 11:38:34;;;;;;;5.07;1.00;;;;;;;;;;4982236;28;20034;-76
2023/01/11 11:41:03;;;;;;;4.50;1.00;;;;;;;;;;4980368;28;20045;-76
2023/01/11 11:43:31;;;;;;;6.70;0.98;;;;;;;;;;4982458;28;20026;-75
2023/01/11 11:45:58;;;;;;;7.63;1.10;;;;;;;;;;4982589;28;20655;-75
2023/01/11 11:48:26;;;;;;;6.28;1.35;;;;;;;;;;4982031;28;20548;-75
2023/01/11 11:50:53;;;;;;;9.00;1.33;;;;;;;;;;4979546;28;20550;-75
2023/01/11 11:53:22;;;;;;;4.63;1.02;;;;;;;;;;4975961;28;20019;-76
2023/01/11 11:55:48;;;;;;;4.90;1.10;;;;;;;;;;4979157;28;20026;-75
2023/01/11 11:58:18;;;;;;;9.85;1.38;;;;;;;;;;4981145;28;20105;-76
2023/01/11 12:00:45;;;;;;;5.47;1.63;;;;;;;;;;4972727;28;20724;-75
2023/01/11 12:03:15;;;;;;;5.97;1.02;;;;;;;;;;4983810;28;20689;-74
2023/01/11 12:05:49;;;;;;;8.45;1.52;;;;;;;;;;4977374;28;20050;-75
2023/01/11 12:08:16;;;;;;;5.13;0.93;;;;;;;;;;4977919;28;20034;-75
2023/01/11 12:10:47;;;;;;;6.47;1.08;;;;;;;;;;4986571;28;20553;-75
2023/01/11 12:13:33;;;;;;;7.13;0.90;;;;;;;;;;4974949;28;20105;-74
2023/01/11 12:16:01;;;;;;;8.48;1.38;;;;;;;;;;4973180;28;20282;-75
2023/01/11 12:18:37;;;;;;;6.00;0.82;;;;;;;;;;4980446;28;20597;-76
2023/01/11 12:21:09;;;;;;;8.15;1.20;;;;;;;;;;4981272;28;20069;-76
2023/01/11 12:23:35;;;;;;;9.43;1.58;;;;;;;;;;4980519;28;20490;-74
2023/01/11 12:26:11;;;;;;;17.25;1.40;;;;;;;;;;4979026;28;20024;-76
2023/01/11 12:28:56;;;;;;;6.15;1.30;;;;;;;;;;4978725;28;20053;-76
2023/01/11 12:31:22;;;;;;;7.53;1.27;;;;;;;;;;4976921;28;20652;-76
2023/01/11 12:34:09;;;;;;;6.90;0.85;;;;;;;;;;4977322;28;20185;-74
2023/01/11 12:36:52;;;;;;;7.78;1.20;;;;;;;;;;4974441;28;20113;-77
2023/01/11 12:39:28;;;;;;;6.82;0.90;;;;;;;;;;4976765;28;20022;-76
2023/01/11 12:41:54;;;;;;;11.52;1.42;;;;;;;;;;4979447;28;20153;-75
2023/01/11 12:44:26;;;;;;;6.15;1.08;;;;;;;;;;4980238;28;20026;-76
2023/01/11 12:47:10;;;;;;;7.20;1.13;;;;;;;;;;4979927;28;20034;-76
2023/01/11 12:49:55;;;;;;;5.53;1.00;;;;;;;;;;4979878;28;20104;-76
2023/01/11 12:52:40;;;;;;;8.98;1.08;;;;;;;;;;4976251;28;20034;-75
2023/01/11 12:55:13;;;;;;;11.73;1.20;;;;;;;;;;4978763;28;20027;-75
2023/01/11 13:01:09;;;;;;;11.15;1.98;;;;;;;;;;4969775;28;20050;-76
2023/01/11 13:03:54;;;;;;;28.83;3.28;;;;;;;;;;4979288;28;20125;-76
2023/01/11 13:06:41;;;;;;;6.25;1.33;;;;;;;;;;4982900;28;20042;-74
2023/01/11 13:09:17;;;;;;;7.15;1.30;;;;;;;;;;4982624;28;20445;-74
2023/01/11 13:11:49;;;;;;;10.68;1.20;;;;;;;;;;4980765;28;20018;-74
2023/01/11 13:14:30;;;;;;;8.48;1.25;;;;;;;;;;4983016;28;20038;-74
2023/01/11 13:17:20;;;;;;;9.07;1.65;;;;;;;;;;4982766;28;20101;-73
2023/01/11 13:19:49;;;;;;;7.63;1.45;;;;;;;;;;4984868;28;20050;-73
2023/01/11 13:22:18;;;;;;;3.55;1.05;;;;;;;;;;4982829;28;20026;-74
2023/01/11 13:24:49;;;;;;;5.93;1.45;;;;;;;;;;4979813;28;20382;-74
2023/01/11 13:27:17;;;;;;;8.27;1.40;;;;;;;;;;4981465;28;20033;-73
2023/01/11 13:29:45;;;;;;;5.45;1.00;;;;;;;;;;4980874;28;20125;-74
2023/01/11 13:32:16;;;;;;;7.13;1.38;;;;;;;;;;4979936;28;20509;-74
2023/01/11 13:34:45;;;;;;;4.70;1.30;;;;;;;;;;4980569;28;20027;-73
2023/01/11 13:37:13;;;;;;;5.00;1.13;;;;;;;;;;4978627;28;20097;-74
2023/01/11 13:39:44;;;;;;;4.95;1.13;;;;;;;;;;4974096;28;20102;-72
2023/01/11 13:42:17;;;;;;;6.50;0.93;;;;;;;;;;4975347;28;20042;-74
2023/01/11 13:44:49;;;;;;;5.88;1.20;;;;;;;;;;4977109;28;20093;-72
2023/01/11 13:47:18;;;;;;;4.85;0.98;;;;;;;;;;4976867;28;20029;-74
2023/01/11 13:50:04;;;;;;;3.40;1.50;;;;;;;;;;4979730;28;20061;-74
2023/01/11 13:53:08;;;;;;;8.32;2.03;;;;;;;;;;4979973;28;20026;-74
2023/01/11 13:55:34;;;;;;;4.03;1.10;;;;;;;;;;4944730;28;20054;-74
2023/01/11 13:58:07;;;;;;;9.13;1.58;;;;;;;;;;4974078;28;20672;-74
2023/01/11 14:00:37;;;;;;;8.98;1.92;;;;;;;;;;4980026;28;20030;-73
2023/01/11 14:03:03;;;;;;;11.02;1.70;;;;;;;;;;4977886;28;20131;-74
2023/01/11 14:05:35;;;;;;;6.60;1.30;;;;;;;;;;4977059;28;20034;-73
2023/01/11 14:08:02;;;;;;;7.55;1.23;;;;;;;;;;4976575;28;20089;-73
2023/01/11 14:10:31;;;;;;;10.85;1.45;;;;;;;;;;4979673;28;20054;-74
2023/01/11 14:12:57;;;;;;;6.03;1.33;;;;;;;;;;4975494;28;20026;-74
2023/01/11 14:15:33;;;;;;;7.22;1.42;;;;;;;;;;4976566;28;20077;-73
2023/01/11 14:17:59;;;;;;;7.38;1.80;;;;;;;;;;4974156;28;20030;-73
2023/01/11 14:20:44;;;;;;;5.35;1.60;;;;;;;;;;4981060;28;20134;-74
2023/01/11 14:23:15;;;;;;;4.85;1.02;;;;;;;;;;4974362;28;20076;-74
2023/01/11 14:25:59;;;;;;;5.27;1.10;;;;;;;;;;4973276;28;20034;-73
2023/01/11 14:28:38;;;;;;;5.85;1.23;;;;;;;;;;4971414;28;20948;-73
2023/01/11 14:31:23;;;;;;;5.13;1.50;;;;;;;;;;4979117;28;20026;-73
2023/01/11 14:34:08;;;;;;;6.40;1.48;;;;;;;;;;4978498;28;20117;-73
2023/01/11 14:36:49;;;;;;;8.02;1.52;;;;;;;;;;4970359;28;20058;-74
2023/01/11 14:39:18;;;;;;;6.73;1.33;;;;;;;;;;4977893;28;20041;-74
2023/01/11 14:41:44;;;;;;;8.07;1.50;;;;;;;;;;4972105;28;20149;-74
2023/01/11 14:44:29;;;;;;;9.52;1.38;;;;;;;;;;4977761;28;20022;-73
2023/01/11 14:47:22;;;;;;;8.43;1.23;;;;;;;;;;4974447;28;20039;-73
2023/01/11 14:49:48;;;;;;;7.75;1.90;;;;;;;;;;4971669;28;20041;-74
2023/01/11 14:52:20;;;;;;;3.88;1.00;;;;;;;;;;4977290;28;20041;-73
2023/01/11 14:54:48;;;;;;;16.90;1.70;;;;;;;;;;4976158;28;20087;-73
2023/01/11 14:57:33;;;;;;;14.13;1.40;;;;;;;;;;4979396;28;21455;-74
2023/01/11 15:00:00;;;;;;;8.80;1.05;;;;;;;;;;4978724;28;20049;-73
2023/01/11 15:02:28;;;;;;;6.57;1.00;;;;;;;;;;4974902;28;20054;-73
2023/01/11 15:04:54;;;;;;;7.35;1.10;;;;;;;;;;4978400;28;20094;-73
2023/01/11 15:07:40;;;;;;;6.40;1.30;;;;;;;;;;4979228;28;20435;-73
2023/01/11 15:10:27;;;;;;;5.55;1.15;;;;;;;;;;4979432;28;20029;-73
2023/01/11 15:12:55;;;;;;;8.77;1.10;;;;;;;;;;4968208;28;20077;-73
2023/01/11 15:18:16;;;;;;;42.70;3.55;;;;;;;;;;4976226;28;20110;-73
2023/01/11 15:18:18;;;;;;;7.22;0.95;;;;;;;;;;4974436;28;20029;-74
2023/01/11 15:20:58;;;;;;;7.82;1.00;;;;;;;;;;4979342;28;20038;-74
2023/01/11 15:23:25;;;;;;;1.92;0.77;;;;;;;;;;4975888;28;20109;-74
2023/01/11 15:25:58;;;;;;;3.90;1.38;;;;;;;;;;4977196;28;20113;-73
2023/01/11 15:28:40;;;;;;;5.72;1.52;;;;;;;;;;4970519;28;20081;-74